Storm Lake, IA

2:08 AM CDT on July 25, 2017 (GMT -0500)
Storm Lake Municipal

Weather History for KSLB - April, 2014

Change the Weather History Date:

Wednesday, April 9, 2014

  Actual Average Record
Temperature  
Mean Temperature 54 °F -  
Max Temperature 77 °F 55 °F 78 °F (2005)
Min Temperature 32 °F 35 °F 14 °F (1997)
Degree Days  
Heating Degree Days 10    
Growing Degree Days 4 (Base 50)    
Moisture  
Dew Point 27 °F    
Average Humidity 40    
Maximum Humidity 75    
Minimum Humidity 17    
Precipitation  
Precipitation 0.00 in - - ()
Sea Level Pressure  
Sea Level Pressure 29.81 in    
Wind  
Wind Speed 15 mph (SSW)    
Max Wind Speed 31 mph    
Max Gust Speed 39 mph    
Visibility 10 miles    
Events      
Averages and records for this station are not official NWS values.
T = Trace of Precipitation, MM = Missing Value Source: NWS Daily Summary

Daily Weather History Graph

Daily Weather History Graph

Search for Another Location

Airport or City:

Trip Planner

Search our weather history database for the weather conditions in past years. The results will help you decide how hot, cold, wet, or windy it might be!

Date:

Astronomy

Apr. 09, 2014 Rise Set
Actual Time 6:49 AM CDT 7:56 PM CDT
Civil Twilight 6:20 AM CDT 8:25 PM CDT
Nautical Twilight 5:46 AM CDT 8:59 PM CDT
Astronomical Twilight 5:10 AM CDT 9:36 PM CDT
Moon 2:38 PM CDT (4/9) 3:46 AM CDT (4/9)
Length of Visible Light 14h 04m
Length of Day
13h 06m
Waxing Gibbous, 72% of the Moon is Illuminated
Apr 9
Waxing Gibbous
Apr 15
Full
Apr 22
Last Quarter
Apr 29
New
May 6
First Quarter

Hourly Weather History & Observations

Time (CDT) Temp. Windchill Dew Point Humidity Pressure Visibility Wind Dir Wind Speed Gust Speed Precip Events Conditions
12:15 AM 37.4 °F 30.8 °F 24.8 °F 60% 30.03 in 10.0 mi South 9.2 mph - N/A   Clear
12:35 AM 35.6 °F 28.0 °F 23.0 °F 60% 30.02 in 10.0 mi South 10.4 mph - N/A   Clear
12:55 AM 35.6 °F 28.0 °F 23.0 °F 60% 30.02 in 10.0 mi South 10.4 mph - N/A   Clear
1:15 AM 35.6 °F 27.5 °F 23.0 °F 60% 30.01 in 10.0 mi South 11.5 mph - N/A   Clear
1:35 AM 35.6 °F 27.5 °F 23.0 °F 60% 30.01 in 10.0 mi South 11.5 mph - N/A   Clear
1:55 AM 33.8 °F 25.3 °F 23.0 °F 65% 30.00 in 10.0 mi South 11.5 mph - N/A   Clear
2:15 AM 33.8 °F 25.3 °F 23.0 °F 65% 30.00 in 10.0 mi South 11.5 mph - N/A   Clear
2:35 AM 33.8 °F 25.8 °F 23.0 °F 65% 30.00 in 10.0 mi South 10.4 mph - N/A   Clear
2:55 AM 32.0 °F 23.6 °F 23.0 °F 69% 29.99 in 10.0 mi South 10.4 mph - N/A   Clear
3:15 AM 32.0 °F 24.2 °F 24.8 °F 75% 29.99 in 10.0 mi SSW 9.2 mph - N/A   Clear
3:35 AM 32.0 °F 23.6 °F 24.8 °F 75% 29.99 in 10.0 mi SSW 10.4 mph - N/A   Clear
3:55 AM 32.0 °F 24.2 °F 24.8 °F 75% 29.99 in 10.0 mi SSW 9.2 mph - N/A   Clear
4:15 AM 32.0 °F 24.2 °F 24.8 °F 75% 29.99 in 10.0 mi SSW 9.2 mph - N/A   Clear
4:35 AM 32.0 °F 24.2 °F 24.8 °F 75% 29.99 in 10.0 mi SSW 9.2 mph - N/A   Scattered Clouds
4:55 AM 33.8 °F 26.4 °F 24.8 °F 70% 29.98 in 10.0 mi SSW 9.2 mph - N/A   Mostly Cloudy
5:15 AM 33.8 °F 27.0 °F 24.8 °F 70% 29.97 in 10.0 mi SSW 8.1 mph - N/A   Overcast
5:35 AM 33.8 °F 25.8 °F 24.8 °F 70% 29.96 in 10.0 mi SSW 10.4 mph - N/A   Overcast
5:55 AM 37.4 °F 28.5 °F 24.8 °F 60% 29.96 in 10.0 mi SSW 15.0 mph - N/A   Scattered Clouds
6:15 AM 35.6 °F 27.5 °F 24.8 °F 65% 29.96 in 10.0 mi SSW 11.5 mph - N/A   Mostly Cloudy
6:35 AM 35.6 °F 28.6 °F 24.8 °F 65% 29.95 in 10.0 mi SSW 9.2 mph - N/A   Overcast
6:55 AM 35.6 °F 28.0 °F 23.0 °F 60% 29.95 in 10.0 mi SSW 10.4 mph - N/A   Mostly Cloudy
7:15 AM 37.4 °F 29.8 °F 23.0 °F 56% 29.94 in 10.0 mi SSW 11.5 mph - N/A   Partly Cloudy
7:35 AM 37.4 °F 29.8 °F 23.0 °F 56% 29.93 in 10.0 mi South 11.5 mph - N/A   Clear
7:55 AM 41.0 °F 33.5 °F 23.0 °F 49% 29.93 in 10.0 mi South 13.8 mph - N/A   Clear
8:15 AM 42.8 °F 35.8 °F 23.0 °F 46% 29.93 in 10.0 mi SSW 13.8 mph - N/A   Clear
8:35 AM 46.4 °F 39.5 °F 23.0 °F 40% 29.92 in 10.0 mi SSW 17.3 mph - N/A   Clear
8:55 AM 48.2 °F - 21.2 °F 34% 29.91 in 10.0 mi SSW 20.7 mph - N/A   Clear
9:15 AM 50.0 °F - 21.2 °F 32% 29.89 in 10.0 mi SSW 23.0 mph 28.8 mph N/A   Clear
9:35 AM 51.8 °F - 21.2 °F 30% 29.88 in 10.0 mi SSW 25.3 mph 32.2 mph N/A   Clear
9:55 AM 53.6 °F - 21.2 °F 28% 29.87 in 10.0 mi SSW 24.2 mph 34.5 mph N/A   Clear
10:15 AM 55.4 °F - 21.2 °F 26% 29.86 in 10.0 mi SSW 26.5 mph - N/A   Clear
10:35 AM 57.2 °F - 23.0 °F 27% 29.85 in 10.0 mi SSW 27.6 mph 35.7 mph N/A   Clear
10:55 AM 59.0 °F - 23.0 °F 25% 29.84 in 10.0 mi SW 31.1 mph 38.0 mph N/A   Clear
11:15 AM 60.8 °F - 23.0 °F 23% 29.84 in 10.0 mi SW 24.2 mph 33.4 mph N/A   Clear
11:35 AM 62.6 °F - 24.8 °F 24% 29.82 in 10.0 mi SW 27.6 mph 38.0 mph N/A   Clear
11:55 AM 64.4 °F - 24.8 °F 22% 29.81 in 10.0 mi SW 29.9 mph 38.0 mph N/A   Clear
12:15 PM 64.4 °F - 24.8 °F 22% 29.80 in 10.0 mi SW 27.6 mph 39.1 mph N/A   Clear
12:35 PM 66.2 °F - 24.8 °F 21% 29.78 in 10.0 mi SSW 26.5 mph 38.0 mph N/A   Clear
12:55 PM 68.0 °F - 26.6 °F 21% 29.77 in 10.0 mi SW 27.6 mph 38.0 mph N/A   Clear
1:15 PM 68.0 °F - 26.6 °F 21% 29.76 in 10.0 mi SW 25.3 mph 33.4 mph N/A   Clear
1:35 PM 69.8 °F - 26.6 °F 20% 29.75 in 10.0 mi SSW 27.6 mph 36.8 mph N/A   Clear
1:55 PM 71.6 °F - 26.6 °F 19% 29.74 in 10.0 mi SW 31.1 mph 38.0 mph N/A   Clear
2:15 PM 71.6 °F - 26.6 °F 19% 29.74 in 10.0 mi SW 27.6 mph 35.7 mph N/A   Clear
2:55 PM 73.4 °F - 26.6 °F 18% 29.73 in 10.0 mi SW 26.5 mph 36.8 mph N/A   Clear
3:15 PM 73.4 °F - 28.4 °F 19% 29.71 in 10.0 mi SSW 29.9 mph 35.7 mph N/A   Clear
3:35 PM 73.4 °F - 28.4 °F 19% 29.70 in 10.0 mi SW 26.5 mph 33.4 mph N/A   Clear
3:55 PM 75.2 °F - 28.4 °F 18% 29.70 in 10.0 mi SW 25.3 mph 32.2 mph N/A   Clear
4:15 PM 75.2 °F - 28.4 °F 18% 29.68 in 10.0 mi SW 24.2 mph - N/A   Clear
4:35 PM 75.2 °F - 28.4 °F 18% 29.68 in 10.0 mi SW 19.6 mph 32.2 mph N/A   Clear
4:55 PM 77.0 °F - 28.4 °F 17% 29.68 in 10.0 mi SW 20.7 mph 27.6 mph N/A   Clear
5:15 PM 75.2 °F - 28.4 °F 18% 29.67 in 10.0 mi SW 23.0 mph - N/A   Clear
5:35 PM 75.2 °F - 28.4 °F 18% 29.67 in 10.0 mi SW 19.6 mph 26.5 mph N/A   Clear
5:55 PM 73.4 °F - 28.4 °F 19% 29.67 in 10.0 mi SSW 16.1 mph 23.0 mph N/A   Clear
6:15 PM 73.4 °F - 30.2 °F 20% 29.66 in 10.0 mi SSW 13.8 mph 19.6 mph N/A   Clear
6:35 PM 71.6 °F - 32.0 °F 23% 29.66 in 10.0 mi SSW 11.5 mph - N/A   Clear
6:55 PM 71.6 °F - 32.0 °F 23% 29.66 in 10.0 mi SW 10.4 mph - N/A   Clear
7:15 PM 68.0 °F - 32.0 °F 26% 29.66 in 10.0 mi SSW 11.5 mph - N/A   Clear
7:35 PM 66.2 °F - 32.0 °F 28% 29.65 in 10.0 mi SSW 8.1 mph - N/A   Clear
7:55 PM 62.6 °F - 32.0 °F 32% 29.65 in 10.0 mi South 9.2 mph - N/A   Clear
8:15 PM 60.8 °F - 32.0 °F 34% 29.65 in 10.0 mi South 10.4 mph - N/A   Clear
8:35 PM 60.8 °F - 32.0 °F 34% 29.65 in 10.0 mi SSW 10.4 mph - N/A   Clear
8:55 PM 59.0 °F - 32.0 °F 36% 29.64 in 10.0 mi SSW 10.4 mph - N/A   Clear
9:15 PM 57.2 °F - 32.0 °F 38% 29.64 in 10.0 mi South 11.5 mph - N/A   Clear
9:35 PM 57.2 °F - 32.0 °F 38% 29.64 in 10.0 mi South 11.5 mph - N/A   Clear
9:55 PM 55.4 °F - 32.0 °F 41% 29.63 in 10.0 mi South 10.4 mph - N/A   Clear
10:15 PM 55.4 °F - 32.0 °F 41% 29.63 in 10.0 mi South 9.2 mph - N/A   Clear
10:35 PM 55.4 °F - 32.0 °F 41% 29.62 in 10.0 mi SSE 12.7 mph - N/A   Clear
10:55 PM 55.4 °F - 32.0 °F 41% 29.61 in 10.0 mi South 11.5 mph - N/A   Clear
11:15 PM 55.4 °F - 32.0 °F 41% 29.60 in 10.0 mi South 12.7 mph - N/A   Clear
11:35 PM 57.2 °F - 33.8 °F 41% 29.60 in 10.0 mi South 13.8 mph - N/A   Clear
11:55 PM 57.2 °F - 33.8 °F 41% 29.60 in 10.0 mi South 16.1 mph - N/A   Clear